createdAt,value
2018-08-16T00:01:18.850Z,19.91
2018-08-16T00:03:48.148Z,19.94
2018-08-16T00:06:18.002Z,19.96
2018-08-16T00:08:47.379Z,19.97
2018-08-16T00:11:16.702Z,19.95
2018-08-16T00:13:46.578Z,19.94
2018-08-16T00:16:15.751Z,19.97
2018-08-16T00:18:45.074Z,20.00
2018-08-16T00:21:14.468Z,20.02
2018-08-16T00:23:43.867Z,20.02
2018-08-16T00:26:13.565Z,20.05
2018-08-16T00:28:43.010Z,20.05
2018-08-16T00:31:12.549Z,20.06
2018-08-16T00:33:42.280Z,20.07
2018-08-16T00:36:11.640Z,20.05
2018-08-16T00:38:41.052Z,20.06
2018-08-16T00:41:10.418Z,20.08
2018-08-16T00:43:40.101Z,20.07
2018-08-16T00:46:09.414Z,20.05
2018-08-16T00:48:38.774Z,20.08
2018-08-16T00:51:08.358Z,20.07
2018-08-16T00:53:37.444Z,20.09
2018-08-16T00:56:07.112Z,20.10
2018-08-16T00:58:36.757Z,20.07
2018-08-16T01:01:06.954Z,20.10
2018-08-16T01:03:36.381Z,20.11
2018-08-16T01:06:06.257Z,20.07
2018-08-16T01:08:35.403Z,20.08
2018-08-16T01:11:04.605Z,20.09
2018-08-16T01:13:33.974Z,20.08
2018-08-16T01:16:03.220Z,20.09
2018-08-16T01:18:32.625Z,20.13
2018-08-16T01:21:02.278Z,20.12
2018-08-16T01:23:31.420Z,20.13
2018-08-16T01:26:00.581Z,20.15
2018-08-16T01:28:30.251Z,19.55
2018-08-16T01:30:59.532Z,20.15
2018-08-16T01:33:28.968Z,20.14
2018-08-16T01:35:58.598Z,19.50
2018-08-16T01:38:28.544Z,20.09
2018-08-16T01:40:58.062Z,20.08
2018-08-16T01:43:28.364Z,20.09
2018-08-16T01:45:57.932Z,20.08
2018-08-16T01:48:27.558Z,20.06
2018-08-16T01:50:57.502Z,20.05
2018-08-16T01:53:27.619Z,20.05
2018-08-16T01:55:57.346Z,20.02
2018-08-16T01:58:27.295Z,20.01
2018-08-16T02:00:56.552Z,20.03
2018-08-16T02:03:26.177Z,20.02
2018-08-16T02:05:56.214Z,20.02
2018-08-16T02:08:26.645Z,20.06
2018-08-16T02:10:56.170Z,20.03
2018-08-16T02:13:25.982Z,20.00
2018-08-16T02:15:56.024Z,20.02
2018-08-16T02:18:25.714Z,19.99
2018-08-16T02:20:55.382Z,19.95
2018-08-16T02:23:25.163Z,19.95
2018-08-16T02:25:55.259Z,19.96
2018-08-16T02:28:24.822Z,19.98
2018-08-16T02:30:54.413Z,19.95
2018-08-16T02:33:23.884Z,19.96
2018-08-16T02:35:53.187Z,19.94
2018-08-16T02:38:23.048Z,19.95
2018-08-16T02:40:52.240Z,19.96
2018-08-16T02:43:21.533Z,19.92
2018-08-16T02:45:50.761Z,19.95
2018-08-16T02:48:20.024Z,19.99
2018-08-16T02:50:49.789Z,19.99
2018-08-16T02:53:19.486Z,19.96
2018-08-16T02:55:48.755Z,19.95
2018-08-16T02:58:18.451Z,19.93
2018-08-16T03:00:47.943Z,19.94
2018-08-16T03:03:17.228Z,19.95
2018-08-16T03:05:46.654Z,19.89
2018-08-16T03:08:15.774Z,19.91
2018-08-16T03:10:45.263Z,19.90
2018-08-16T03:13:14.917Z,19.93
2018-08-16T03:15:44.172Z,19.95
2018-08-16T03:18:13.281Z,19.94
2018-08-16T03:20:42.938Z,19.94
2018-08-16T03:23:12.190Z,19.91
2018-08-16T03:25:41.839Z,19.91
2018-08-16T03:28:11.233Z,19.90
2018-08-16T03:30:40.350Z,19.88
2018-08-16T03:33:10.216Z,19.86
2018-08-16T03:35:39.736Z,19.87
2018-08-16T03:38:08.856Z,19.89
2018-08-16T03:40:38.527Z,19.89
2018-08-16T03:43:08.486Z,19.89
2018-08-16T03:45:38.054Z,19.89
2018-08-16T03:48:07.405Z,19.90
2018-08-16T03:50:36.797Z,19.92
2018-08-16T03:53:06.297Z,19.88
2018-08-16T03:55:35.573Z,19.87
2018-08-16T03:58:05.451Z,19.86
2018-08-16T04:00:34.680Z,19.86
2018-08-16T04:03:04.574Z,19.86
2018-08-16T04:05:34.023Z,19.91
2018-08-16T04:08:03.771Z,19.90
2018-08-16T04:10:33.346Z,19.89
2018-08-16T04:13:03.767Z,19.91
2018-08-16T04:15:32.989Z,19.96
2018-08-16T04:18:02.049Z,19.82
2018-08-16T04:20:31.742Z,19.93
2018-08-16T04:23:00.937Z,19.98
2018-08-16T04:25:30.424Z,19.98
2018-08-16T04:27:59.844Z,19.97
2018-08-16T04:30:29.135Z,19.97
2018-08-16T04:32:58.537Z,19.30
2018-08-16T04:35:28.755Z,19.95
2018-08-16T04:37:58.282Z,19.97
2018-08-16T04:40:27.772Z,19.97
2018-08-16T04:42:57.791Z,19.97
2018-08-16T04:45:28.040Z,19.99
2018-08-16T04:47:57.391Z,20.00
2018-08-16T04:50:27.702Z,20.02
2018-08-16T04:52:57.376Z,20.04
2018-08-16T04:55:27.142Z,20.07
2018-08-16T04:57:56.962Z,20.07
2018-08-16T05:00:26.401Z,20.10
2018-08-16T05:02:55.819Z,20.12
2018-08-16T05:05:26.237Z,20.13
2018-08-16T05:07:55.705Z,20.12
2018-08-16T05:10:26.285Z,20.11
2018-08-16T05:12:56.357Z,20.17
2018-08-16T05:15:25.702Z,20.17
2018-08-16T05:17:55.088Z,20.17
2018-08-16T05:20:24.493Z,20.17
2018-08-16T05:22:53.813Z,20.19
2018-08-16T05:25:22.982Z,20.21
2018-08-16T05:27:52.617Z,20.23
2018-08-16T05:30:22.006Z,20.25
2018-08-16T05:32:51.299Z,20.29
2018-08-16T05:35:21.742Z,20.31
2018-08-16T05:37:50.877Z,20.31
2018-08-16T05:40:20.027Z,20.40
2018-08-16T05:42:49.595Z,20.36
2018-08-16T05:45:19.165Z,20.39
2018-08-16T05:47:48.313Z,20.43
2018-08-16T05:50:18.026Z,20.47
2018-08-16T05:52:47.340Z,20.50
2018-08-16T05:55:16.548Z,20.51
2018-08-16T05:57:45.904Z,20.53
2018-08-16T06:00:15.567Z,20.58
2018-08-16T06:02:44.892Z,20.54
2018-08-16T06:05:14.405Z,20.59
2018-08-16T06:07:43.676Z,20.62
2018-08-16T06:10:12.943Z,20.72
2018-08-16T06:12:42.347Z,20.78
2018-08-16T06:15:11.656Z,20.85
2018-08-16T06:17:40.937Z,20.86
2018-08-16T06:20:11.844Z,20.94
2018-08-16T06:22:41.389Z,20.97
2018-08-16T06:25:12.810Z,20.94
2018-08-16T06:27:42.458Z,20.94
2018-08-16T06:30:14.837Z,20.94
2018-08-16T06:32:44.840Z,20.83
2018-08-16T06:35:14.150Z,20.74
2018-08-16T06:37:43.565Z,20.68
2018-08-16T06:40:17.300Z,20.61
2018-08-16T06:42:47.576Z,20.62
2018-08-16T06:45:16.881Z,20.58
2018-08-16T06:47:46.796Z,20.60
2018-08-16T06:50:16.001Z,20.59
2018-08-16T06:52:45.248Z,20.61
2018-08-16T06:55:14.492Z,20.65
2018-08-16T06:57:43.854Z,20.63
2018-08-16T07:00:13.346Z,20.70
2018-08-16T07:02:42.694Z,20.72
2018-08-16T07:05:12.230Z,20.70
2018-08-16T07:07:41.393Z,20.70
2018-08-16T07:10:13.322Z,20.73
2018-08-16T07:12:42.419Z,20.72
2018-08-16T07:15:14.235Z,20.70
2018-08-16T07:17:44.129Z,20.69
2018-08-16T07:20:13.694Z,20.72
2018-08-16T07:22:43.076Z,20.76
2018-08-16T07:25:12.487Z,20.72
2018-08-16T07:27:41.658Z,20.70
2018-08-16T07:30:11.324Z,20.68
2018-08-16T07:32:40.763Z,20.73
2018-08-16T07:35:10.735Z,20.74
2018-08-16T07:37:40.005Z,20.75
2018-08-16T07:40:10.234Z,20.77
2018-08-16T07:42:39.445Z,20.69
2018-08-16T07:45:11.643Z,20.64
2018-08-16T07:47:41.245Z,20.62
2018-08-16T07:50:20.002Z,20.64
2018-08-16T07:52:49.441Z,20.65
2018-08-16T07:55:19.043Z,20.70
2018-08-16T07:57:48.286Z,20.76
2018-08-16T08:00:19.121Z,20.80
2018-08-16T08:02:48.273Z,20.81
2018-08-16T08:05:17.828Z,20.81
2018-08-16T08:07:47.454Z,20.82
2018-08-16T08:10:16.951Z,20.86
2018-08-16T08:12:46.094Z,20.90
2018-08-16T08:15:16.195Z,20.94
2018-08-16T08:17:45.613Z,21.04
2018-08-16T08:20:16.470Z,21.07
2018-08-16T08:22:46.039Z,21.09
2018-08-16T08:25:15.700Z,21.09
2018-08-16T08:27:44.966Z,21.07
2018-08-16T08:30:17.824Z,21.07
2018-08-16T08:32:47.345Z,21.08
2018-08-16T08:35:16.701Z,21.05
2018-08-16T08:37:57.161Z,21.06
2018-08-16T08:40:26.621Z,20.99
2018-08-16T08:42:56.131Z,21.02
2018-08-16T08:45:25.987Z,21.00
2018-08-16T08:47:58.371Z,20.92
2018-08-16T08:50:28.902Z,20.96
2018-08-16T08:55:11.214Z,21.02
2018-08-16T08:57:51.467Z,21.01
2018-08-16T09:00:21.740Z,21.02
2018-08-16T09:02:51.391Z,21.08
2018-08-16T09:05:21.389Z,21.14
2018-08-16T09:07:50.763Z,21.15
2018-08-16T09:10:57.282Z,21.17
2018-08-16T09:13:37.970Z,21.19
2018-08-16T09:16:17.632Z,21.17
2018-08-16T09:18:47.062Z,21.16
2018-08-16T09:21:17.230Z,21.20
2018-08-16T09:23:46.619Z,21.29
2018-08-16T09:26:20.930Z,21.33
2018-08-16T09:28:50.534Z,21.31
2018-08-16T09:31:30.498Z,21.30
2018-08-16T09:34:14.679Z,21.25
2018-08-16T09:36:44.066Z,21.17
2018-08-16T09:39:13.476Z,21.13
2018-08-16T09:41:43.008Z,21.19
2018-08-16T09:44:12.405Z,21.22
2018-08-16T09:46:54.715Z,21.40
2018-08-16T09:49:23.964Z,21.69
2018-08-16T09:51:53.236Z,21.80
2018-08-16T09:54:22.579Z,21.90
2018-08-16T09:56:52.461Z,22.07
2018-08-16T09:59:22.839Z,22.26
2018-08-16T10:01:52.485Z,22.60
2018-08-16T10:04:22.156Z,22.73
2018-08-16T10:06:51.468Z,22.82
2018-08-16T10:09:28.541Z,22.86
2018-08-16T10:11:58.980Z,22.77
2018-08-16T10:14:28.987Z,22.75
2018-08-16T10:16:58.605Z,22.76
2018-08-16T10:19:28.635Z,22.75
2018-08-16T10:21:58.479Z,22.93
2018-08-16T10:24:27.969Z,22.93
2018-08-16T10:26:57.421Z,22.91
2018-08-16T10:29:27.242Z,22.76
2018-08-16T10:31:56.948Z,22.67
2018-08-16T10:34:26.357Z,22.64
2018-08-16T10:36:56.221Z,22.74
2018-08-16T10:39:25.529Z,22.71
2018-08-16T10:41:55.780Z,22.71
2018-08-16T10:44:25.547Z,22.70
2018-08-16T10:46:54.724Z,22.75
2018-08-16T10:49:23.858Z,22.88
2018-08-16T10:51:53.307Z,22.68
2018-08-16T10:54:22.741Z,22.62
2018-08-16T10:56:51.885Z,22.57
2018-08-16T10:59:21.308Z,22.58
2018-08-16T11:01:51.013Z,22.73
2018-08-16T11:04:20.354Z,22.71
2018-08-16T11:06:49.970Z,22.72
2018-08-16T11:09:19.162Z,22.73
2018-08-16T11:11:48.411Z,22.71
2018-08-16T11:14:17.964Z,22.72
2018-08-16T11:16:47.140Z,22.72
2018-08-16T11:19:16.484Z,22.76
2018-08-16T11:21:45.984Z,22.89
2018-08-16T11:24:15.330Z,23.01
2018-08-16T11:26:44.864Z,23.07
2018-08-16T11:29:14.438Z,23.24
2018-08-16T11:31:43.847Z,23.20
2018-08-16T11:34:13.492Z,23.17
2018-08-16T11:36:43.006Z,23.04
2018-08-16T11:39:12.251Z,22.97
2018-08-16T11:41:41.545Z,22.94
2018-08-16T11:44:10.909Z,23.10
2018-08-16T11:46:40.092Z,23.15
2018-08-16T11:49:09.392Z,23.06
2018-08-16T11:51:38.775Z,23.01
2018-08-16T11:54:08.374Z,22.97
2018-08-16T11:56:37.641Z,22.88
2018-08-16T11:59:07.318Z,22.99
2018-08-16T12:01:36.523Z,23.07
2018-08-16T12:04:05.844Z,23.07
2018-08-16T12:06:35.645Z,22.96
2018-08-16T12:09:07.680Z,22.92
2018-08-16T12:11:36.953Z,22.85
2018-08-16T12:14:06.328Z,22.81
2018-08-16T12:16:35.545Z,22.78
2018-08-16T12:19:04.917Z,22.69
2018-08-16T12:21:34.192Z,22.85
2018-08-16T12:24:04.071Z,22.87
2018-08-16T12:26:33.455Z,22.90
2018-08-16T12:29:02.893Z,22.88
2018-08-16T12:31:33.061Z,22.93
2018-08-16T12:34:03.314Z,23.03
2018-08-16T12:36:32.401Z,23.10
2018-08-16T12:39:01.930Z,23.11
2018-08-16T12:41:31.414Z,23.27
2018-08-16T12:44:00.509Z,23.30
2018-08-16T12:46:30.352Z,23.33
2018-08-16T12:49:00.832Z,23.27
2018-08-16T12:51:30.110Z,23.34
2018-08-16T12:53:59.562Z,23.53
2018-08-16T12:56:29.843Z,23.51
2018-08-16T12:58:59.463Z,23.46
2018-08-16T13:01:29.959Z,23.29
2018-08-16T13:03:59.793Z,23.24
2018-08-16T13:06:29.345Z,23.12
2018-08-16T13:08:59.191Z,23.00
2018-08-16T13:11:29.259Z,22.97
2018-08-16T13:13:59.521Z,23.00
2018-08-16T13:16:29.220Z,22.93
2018-08-16T13:18:59.377Z,22.80
2018-08-16T13:21:28.865Z,22.84
2018-08-16T13:23:59.188Z,22.85
2018-08-16T13:26:28.947Z,22.90
2018-08-16T13:28:58.484Z,22.89
2018-08-16T13:31:28.180Z,22.81
2018-08-16T13:33:57.950Z,22.76
2018-08-16T13:36:27.553Z,22.86
2018-08-16T13:38:57.482Z,22.85
2018-08-16T13:41:27.462Z,22.90
2018-08-16T13:43:56.985Z,22.88
2018-08-16T13:46:26.426Z,22.97
2018-08-16T13:48:56.320Z,23.00
2018-08-16T13:51:25.672Z,23.09
2018-08-16T13:53:55.591Z,23.10
2018-08-16T13:56:27.307Z,23.04
2018-08-16T13:58:57.075Z,23.09
2018-08-16T14:01:26.847Z,23.12
2018-08-16T14:03:56.559Z,23.20
2018-08-16T14:06:25.952Z,23.37
2018-08-16T14:08:55.839Z,23.31
2018-08-16T14:11:25.313Z,23.33
2018-08-16T14:13:54.833Z,23.40
2018-08-16T14:16:25.142Z,23.36
2018-08-16T14:18:54.603Z,23.33
2018-08-16T14:21:23.692Z,23.27
2018-08-16T14:23:53.045Z,23.26
2018-08-16T14:26:22.220Z,23.25
2018-08-16T14:28:51.680Z,23.29
2018-08-16T14:31:21.096Z,23.23
2018-08-16T14:33:50.892Z,23.28
2018-08-16T14:36:21.012Z,23.36
2018-08-16T14:38:50.414Z,23.43
2018-08-16T14:41:19.893Z,23.26
2018-08-16T14:43:49.029Z,23.14
2018-08-16T14:46:18.638Z,23.18
2018-08-16T14:48:47.909Z,23.23
2018-08-16T14:51:17.159Z,23.28
2018-08-16T14:53:46.645Z,23.28
2018-08-16T14:56:16.415Z,23.28
2018-08-16T14:58:45.936Z,23.38
2018-08-16T15:01:15.638Z,23.39
2018-08-16T15:03:44.986Z,23.37
2018-08-16T15:06:14.153Z,23.39
2018-08-16T15:08:43.704Z,23.49
2018-08-16T15:11:12.894Z,23.45
2018-08-16T15:13:41.985Z,23.39
2018-08-16T15:16:11.640Z,23.39
2018-08-16T15:18:40.920Z,23.40
2018-08-16T15:21:10.237Z,23.40
2018-08-16T15:23:41.028Z,23.40
2018-08-16T15:26:10.500Z,23.38
2018-08-16T15:28:39.579Z,23.28
2018-08-16T15:31:09.255Z,23.12
2018-08-16T15:33:38.583Z,23.20
2018-08-16T15:36:08.083Z,23.17
2018-08-16T15:38:37.758Z,23.18
2018-08-16T15:43:37.066Z,23.02
2018-08-16T15:46:06.788Z,23.00
2018-08-16T15:48:36.557Z,23.02
2018-08-16T15:51:05.780Z,23.00
2018-08-16T15:53:35.558Z,22.97
2018-08-16T15:56:05.516Z,22.96
2018-08-16T15:58:34.786Z,22.91
2018-08-16T16:01:04.294Z,22.98
2018-08-16T16:03:33.430Z,23.00
2018-08-16T16:06:03.359Z,23.03
2018-08-16T16:08:32.740Z,23.03
2018-08-16T16:11:02.099Z,23.06
2018-08-16T16:13:31.538Z,23.01
2018-08-16T16:16:01.152Z,22.98
2018-08-16T16:18:30.400Z,22.99
2018-08-16T16:20:59.908Z,23.01
2018-08-16T16:23:30.177Z,22.94
2018-08-16T16:25:59.505Z,22.90
2018-08-16T16:28:28.912Z,22.88
2018-08-16T16:30:58.704Z,22.86
2018-08-16T16:33:28.177Z,22.79
2018-08-16T16:35:57.773Z,22.84
2018-08-16T16:38:27.728Z,22.91
2018-08-16T16:40:57.865Z,22.91
2018-08-16T16:43:27.832Z,22.87
2018-08-16T16:45:57.513Z,22.85
2018-08-16T16:48:26.779Z,22.77
2018-08-16T16:50:57.330Z,22.78
2018-08-16T16:53:27.598Z,22.72
2018-08-16T16:55:56.838Z,22.74
2018-08-16T16:58:26.778Z,22.66
2018-08-16T17:00:56.696Z,22.69
2018-08-16T17:03:26.209Z,22.72
2018-08-16T17:05:55.468Z,22.72
2018-08-16T17:08:25.027Z,22.66
2018-08-16T17:10:54.178Z,22.60
2018-08-16T17:13:23.762Z,22.56
2018-08-16T17:15:53.243Z,22.58
2018-08-16T17:18:22.800Z,22.59
2018-08-16T17:20:52.392Z,22.01
2018-08-16T17:23:22.306Z,22.62
2018-08-16T17:25:51.855Z,22.60
2018-08-16T17:28:21.269Z,22.56
2018-08-16T17:30:50.931Z,22.54
2018-08-16T17:33:20.517Z,22.58
2018-08-16T17:35:49.906Z,22.55
2018-08-16T17:38:19.117Z,22.52
2018-08-16T17:40:48.552Z,22.44
2018-08-16T17:43:18.124Z,22.43
2018-08-16T17:45:47.645Z,22.45
2018-08-16T17:48:18.065Z,22.42
2018-08-16T17:50:49.147Z,22.37
2018-08-16T17:53:18.577Z,22.43
2018-08-16T17:55:47.851Z,22.44
2018-08-16T17:58:17.606Z,22.48
2018-08-16T18:00:47.020Z,22.50
2018-08-16T18:03:16.343Z,22.55
2018-08-16T18:05:46.336Z,22.56
2018-08-16T18:08:15.668Z,22.58
2018-08-16T18:10:45.380Z,22.58
2018-08-16T18:13:15.018Z,22.57
2018-08-16T18:15:44.479Z,22.58
2018-08-16T18:18:13.631Z,22.48
2018-08-16T18:20:43.304Z,22.49
2018-08-16T18:23:12.909Z,22.45
2018-08-16T18:25:42.541Z,22.39
2018-08-16T18:28:12.540Z,22.36
2018-08-16T18:30:41.952Z,22.33
2018-08-16T18:33:11.548Z,22.30
2018-08-16T18:35:41.462Z,22.20
2018-08-16T18:38:11.338Z,22.11
2018-08-16T18:40:40.906Z,22.06
2018-08-16T18:43:10.743Z,22.05
2018-08-16T18:45:40.371Z,22.04
2018-08-16T18:48:09.904Z,22.06
2018-08-16T18:50:40.344Z,22.06
2018-08-16T18:53:10.067Z,21.97
2018-08-16T18:55:39.622Z,21.95
2018-08-16T18:58:09.423Z,22.00
2018-08-16T19:00:39.387Z,21.99
2018-08-16T19:03:09.353Z,21.96
2018-08-16T19:05:39.036Z,21.86
2018-08-16T19:08:09.335Z,21.81
2018-08-16T19:10:38.981Z,21.83
2018-08-16T19:13:08.536Z,21.81
2018-08-16T19:15:38.454Z,21.72
2018-08-16T19:18:08.141Z,21.72
2018-08-16T19:20:37.631Z,21.67
2018-08-16T19:23:07.227Z,21.65
2018-08-16T19:25:36.538Z,21.57
2018-08-16T19:28:05.865Z,21.50
2018-08-16T19:30:35.770Z,21.53
2018-08-16T19:33:05.710Z,21.46
2018-08-16T19:35:35.356Z,21.43
2018-08-16T19:38:05.112Z,21.44
2018-08-16T19:40:34.876Z,21.42
2018-08-16T19:43:04.414Z,21.41
2018-08-16T19:45:34.334Z,21.40
2018-08-16T19:48:04.113Z,21.42
2018-08-16T19:50:33.853Z,21.42
2018-08-16T19:53:03.475Z,21.38
2018-08-16T19:55:33.003Z,21.34
2018-08-16T19:58:02.813Z,21.32
2018-08-16T20:00:32.823Z,21.35
2018-08-16T20:03:02.364Z,21.34
2018-08-16T20:05:31.952Z,21.33
2018-08-16T20:08:01.794Z,21.31
2018-08-16T20:10:31.193Z,21.36
2018-08-16T20:13:00.589Z,21.31
2018-08-16T20:15:30.274Z,21.27
2018-08-16T20:18:00.465Z,21.23
2018-08-16T20:20:30.266Z,21.22
2018-08-16T20:22:59.802Z,21.16
2018-08-16T20:25:29.713Z,21.13
2018-08-16T20:27:59.520Z,21.15
2018-08-16T20:30:29.433Z,21.11
2018-08-16T20:32:59.373Z,21.12
2018-08-16T20:35:29.372Z,21.15
2018-08-16T20:37:59.430Z,21.17
2018-08-16T20:40:29.061Z,21.15
2018-08-16T20:42:58.800Z,21.20
2018-08-16T20:45:28.539Z,21.20
2018-08-16T20:47:58.598Z,21.13
2018-08-16T20:50:28.443Z,21.17
2018-08-16T20:52:58.659Z,21.17
2018-08-16T20:55:28.324Z,21.17
2018-08-16T20:57:58.192Z,21.14
2018-08-16T21:00:28.256Z,21.17
2018-08-16T21:02:58.574Z,21.17
2018-08-16T21:05:28.736Z,21.13
2018-08-16T21:07:58.613Z,21.12
2018-08-16T21:10:28.298Z,21.13
2018-08-16T21:12:58.237Z,21.14
2018-08-16T21:15:28.231Z,21.14
2018-08-16T21:17:57.863Z,21.17
2018-08-16T21:20:27.618Z,21.21
2018-08-16T21:22:57.807Z,21.18
2018-08-16T21:25:27.467Z,21.17
2018-08-16T21:27:57.145Z,21.15
2018-08-16T21:30:27.536Z,21.19
2018-08-16T21:32:57.316Z,21.09
2018-08-16T21:35:27.099Z,21.13
2018-08-16T21:37:57.269Z,21.16
2018-08-16T21:40:26.913Z,21.17
2018-08-16T21:42:56.765Z,21.19
2018-08-16T21:45:26.662Z,21.18
2018-08-16T21:47:56.594Z,21.17
2018-08-16T21:50:26.744Z,21.21
2018-08-16T21:52:56.824Z,21.17
2018-08-16T21:55:33.047Z,21.17
2018-08-16T21:58:02.917Z,21.14
2018-08-16T22:00:53.887Z,21.13
2018-08-16T22:03:24.648Z,21.09
2018-08-16T22:06:02.827Z,21.13
2018-08-16T22:08:41.133Z,21.17
2018-08-16T22:11:10.809Z,21.19
2018-08-16T22:13:40.380Z,21.19
2018-08-16T22:16:10.145Z,20.57
2018-08-16T22:18:39.988Z,21.12
2018-08-16T22:21:09.920Z,21.11
2018-08-16T22:24:42.860Z,21.10
2018-08-16T22:27:12.300Z,21.03
2018-08-16T22:29:41.690Z,20.96
2018-08-16T22:32:11.335Z,20.99
2018-08-16T22:34:40.718Z,21.03
2018-08-16T22:37:10.316Z,20.97
2018-08-16T22:39:40.069Z,20.97
2018-08-16T22:42:09.442Z,20.98
2018-08-16T22:44:38.847Z,20.96
2018-08-16T22:47:08.438Z,20.96
2018-08-16T22:49:38.369Z,20.97
2018-08-16T22:52:07.927Z,20.96
2018-08-16T22:54:37.588Z,20.95
2018-08-16T22:57:07.103Z,20.94
2018-08-16T22:59:36.768Z,20.96
2018-08-16T23:02:06.642Z,20.91
2018-08-16T23:04:35.943Z,20.92
2018-08-16T23:07:06.631Z,20.92
2018-08-16T23:09:37.416Z,20.89
2018-08-16T23:12:07.068Z,20.91
2018-08-16T23:14:36.741Z,20.96
2018-08-16T23:17:06.555Z,20.93
2018-08-16T23:19:35.963Z,20.94
2018-08-16T23:22:05.705Z,20.96
2018-08-16T23:24:35.614Z,20.87
2018-08-16T23:27:05.034Z,20.76
2018-08-16T23:29:34.384Z,20.71
2018-08-16T23:32:05.012Z,20.74
2018-08-16T23:34:34.478Z,20.64
2018-08-16T23:37:04.341Z,20.60
2018-08-16T23:39:34.024Z,20.62
2018-08-16T23:42:03.427Z,20.55
2018-08-16T23:44:33.432Z,20.58
2018-08-16T23:47:03.233Z,20.65
2018-08-16T23:49:32.674Z,20.66
2018-08-16T23:52:02.351Z,20.62
2018-08-16T23:54:32.095Z,20.60
2018-08-16T23:57:01.659Z,20.47
2018-08-16T23:59:31.035Z,19.94
